ADDS METAR Data INFO
IDs: Format: Raw Decoded Include TAF

Data at: 2251 UTC 11 Dec 2017

KF00 112235Z AUTO 30006KT 10SM CLR 21/M08 A3008 RMK AO2 T02151076
KF00 112215Z AUTO 29010KT 10SM CLR 22/M08 A3008 RMK AO2 T02241083
KF00 112155Z AUTO 29012G15KT 10SM CLR 23/M08 A3008 RMK AO2 T02321079
KF00 112135Z AUTO 28010G16KT 10SM CLR 23/M08 A3007 RMK AO2 T02321080
KF00 112115Z AUTO 29013G20KT 10SM CLR 24/M08 A3007 RMK AO2 T02361080
KF00 112055Z AUTO 27013G20KT 10SM CLR 23/M07 A3008 RMK AO2 T02341074
KF00 112035Z AUTO 26010G21KT 10SM CLR 24/M06 A3007 RMK AO2 T02361057
KF00 112015Z AUTO 25010G15KT 10SM CLR 23/M05 A3008 RMK AO2 T02301052
KF00 111955Z AUTO 25011G15KT 10SM CLR 22/M05 A3008 RMK AO2 T02241053
KF00 111935Z AUTO 25011G16KT 10SM CLR 22/M05 A3010 RMK AO2 T02171047
KF00 111915Z AUTO 24011G14KT 10SM CLR 22/M05 A3011 RMK AO2 T02191050
KF00 111855Z AUTO 25012G18KT 10SM CLR 21/M06 A3012 RMK AO2 T02131057
KF00 111835Z AUTO 23009KT 10SM CLR 21/M06 A3013 RMK AO2 T02091057
KF00 111815Z AUTO 28011KT 10SM CLR 20/M07 A3014 RMK AO2 T02051066
KF00 111755Z AUTO 26011G16KT 10SM CLR 20/M06 A3016 RMK AO2 T02051065 10206 20010
KF00 111735Z AUTO 28011KT 10SM CLR 20/M07 A3017 RMK AO2 T01961067
KF00 111715Z AUTO 25012KT 10SM CLR 19/M07 A3019 RMK AO2 T01931066
KF00 111655Z AUTO 27009KT 10SM CLR 19/M06 A3020 RMK AO2 T01891061
KF00 111635Z AUTO 26005KT 10SM CLR 17/M05 A3020 RMK AO2 T01721046
KF00 111615Z AUTO 24005KT 10SM CLR 15/M04 A3021 RMK AO2 T01501044
KF00 111555Z AUTO 23007KT 10SM CLR 14/M04 A3021 RMK AO2 T01381041
KF00 111535Z AUTO 25005KT 10SM CLR 12/M05 A3021 RMK AO2 T01211047
KF00 111515Z AUTO 23004KT 10SM CLR 09/M03 A3022 RMK AO2 T00951030
KF00 111455Z AUTO 22005KT 10SM CLR 08/M04 A3023 RMK AO2 T00771041
KF00 111435Z AUTO 22006KT 10SM CLR 07/M04 A3023 RMK AO2 T00681041
KF00 111415Z AUTO 21006KT 10SM CLR 05/M04 A3024 RMK AO2 T00471036
KF00 111355Z AUTO 20004KT 10SM CLR 02/M05 A3023 RMK AO2 T00171048
KF00 111335Z AUTO 23003KT 10SM CLR 02/M06 A3023 RMK AO2 T00241061
KF00 111315Z AUTO 21003KT 10SM CLR 03/M06 A3023 RMK AO2 T00281064
KF00 111255Z AUTO 21004KT 10SM CLR 03/M06 A3024 RMK AO2 T00291064
KF00 111235Z AUTO 22005KT 10SM CLR 03/M07 A3024 RMK AO2 T00341065
KF00 111215Z AUTO 23004KT 10SM CLR 03/M06 A3023 RMK AO2 T00291060
KF00 111155Z AUTO 23005KT 10SM CLR 03/M06 A3023 RMK AO2 T00291059 10088 20009
KF00 111135Z AUTO 21004KT 10SM CLR 03/M06 A3023 RMK AO2 T00281059
KF00 111115Z AUTO 19006KT 10SM CLR 02/M05 A3023 RMK AO2 T00201053
KF00 111050Z AUTO 21005KT 10SM CLR 02/M05 A3023 RMK AO2 T00211054
KF00 111035Z AUTO 25004KT 10SM CLR 04/M06 A3023 RMK AO2 T00381060
KF00 111015Z AUTO 00000KT 10SM CLR 03/M05 A3024 RMK AO2 T00301051
KF00 110955Z AUTO 26003KT 10SM CLR 06/M07 A3025 RMK AO2 T00621075
KF00 110935Z AUTO 25005KT 10SM CLR 06/M07 A3025 RMK AO2 T00571066
KF00 110915Z AUTO 26005KT 10SM CLR 07/M07 A3025 RMK AO2 T00671075
KF00 110855Z AUTO 27006KT 10SM CLR 06/M08 A3026 RMK AO2 T00641075
KF00 110835Z AUTO 28004KT 10SM CLR 05/M07 A3025 RMK AO2 T00461067
KF00 110815Z AUTO 27006KT 10SM CLR 05/M07 A3025 RMK AO2 T00551071
KF00 110755Z AUTO 27006KT 10SM CLR 06/M07 A3025 RMK AO2 T00551071
KF00 110735Z AUTO 27006KT 10SM CLR 06/M08 A3025 RMK AO2 T00601077
KF00 110715Z AUTO 27005KT 10SM CLR 06/M08 A3025 RMK AO2 T00591078
KF00 110655Z AUTO 27004KT 10SM CLR 08/M09 A3026 RMK AO2 T00831086
KF00 110635Z AUTO 26006KT 10SM CLR 08/M08 A3026 RMK AO2 T00771078
KF00 110615Z AUTO 31005KT 10SM CLR 08/M08 A3026 RMK AO2 T00791078
KF00 110555Z AUTO 32005KT 10SM CLR 08/M08 A3027 RMK AO2 T00771077 10155 20071 402111027
KF00 110535Z AUTO 29004KT 10SM CLR 10/M08 A3027 RMK AO2 T00981085
KF00 110515Z AUTO 30004KT 10SM CLR 09/M08 A3027 RMK AO2 T00911080
KF00 110455Z AUTO 26007KT 10SM CLR 09/M08 A3027 RMK AO2 T00911075
KF00 110435Z AUTO 27005KT 10SM CLR 09/M08 A3027 RMK AO2 T00931078
KF00 110415Z AUTO 27006KT 10SM CLR 09/M07 A3027 RMK AO2 T00931074
KF00 110355Z AUTO 27006KT 10SM CLR 10/M07 A3027 RMK AO2 T00971074
KF00 110335Z AUTO 26007KT 10SM CLR 10/M07 A3027 RMK AO2 T00981073
KF00 110315Z AUTO 25006KT 10SM CLR 11/M08 A3027 RMK AO2 T01121078
KF00 110255Z AUTO 25007KT 10SM CLR 12/M08 A3027 RMK AO2 T01171078
KF00 110235Z AUTO 26007KT 10SM CLR 11/M08 A3027 RMK AO2 T01131075
KF00 110215Z AUTO 26007KT 10SM CLR 11/M07 A3027 RMK AO2 T01121072
KF00 110155Z AUTO 25006KT 10SM CLR 11/M07 A3027 RMK AO2 T01151070
KF00 110135Z AUTO 25006KT 10SM CLR 13/M08 A3027 RMK AO2 T01271076
KF00 110115Z AUTO 25006KT 10SM CLR 13/M08 A3027 RMK AO2 T01311075
KF00 110055Z AUTO 25006KT 10SM CLR 13/M08 A3027 RMK AO2 T01331075
KF00 110035Z AUTO 23006KT 10SM CLR 13/M08 A3027 RMK AO2 T01341075
KF00 110015Z AUTO 22006KT 10SM CLR 15/M08 A3027 RMK AO2 T01481081
KF00 102355Z AUTO 25005KT 10SM CLR 16/M08 A3027 RMK AO2 T01551084 10211 20154
KF00 102335Z AUTO 24005KT 10SM CLR 17/M08 A3026 RMK AO2 T01691084
KF00 102315Z AUTO 25004KT 10SM CLR 17/M08 A3026 RMK AO2 T01731084
KF00 102255Z AUTO 27005KT 10SM CLR 18/M08 A3026 RMK AO2 T01841082
KF00 102235Z AUTO 27006KT 10SM CLR 20/M09 A3026 RMK AO2 T01981086
KF00 102215Z AUTO 28008KT 10SM CLR 21/M09 A3026 RMK AO2 T02051088
KF00 102155Z AUTO 27010KT 10SM CLR 21/M09 A3025 RMK AO2 T02091091
KF00 102135Z AUTO 27009KT 10SM CLR 21/M08 A3026 RMK AO2 T02091080
KF00 102115Z AUTO 26011G16KT 10SM CLR 21/M07 A3026 RMK AO2 T02091071
KF00 102055Z AUTO 25011KT 10SM CLR 20/M05 A3026 RMK AO2 T02031052
KF00 102035Z AUTO 24011KT 10SM CLR 20/M04 A3026 RMK AO2 T02021041
KF00 102015Z AUTO 26011G16KT 10SM CLR 20/M06 A3027 RMK AO2 T02031057
KF00 101955Z AUTO 26010G15KT 10SM CLR 20/M05 A3028 RMK AO2 T02031049
KF00 101935Z AUTO 24012KT 10SM CLR 19/M05 A3029 RMK AO2 T01931052
KF00 101915Z AUTO 26012KT 10SM CLR 19/M05 A3030 RMK AO2 T01921051
KF00 101855Z AUTO 25009KT 10SM CLR 19/M06 A3031 RMK AO2 T01901058
KF00 101835Z AUTO 26010KT 10SM CLR 19/M05 A3031 RMK AO2 T01901052
KF00 101815Z AUTO 25011KT 10SM CLR 18/M05 A3033 RMK AO2 T01821054
KF00 101755Z AUTO 25011KT 10SM CLR 18/M06 A3034 RMK AO2 T01761055 10177 21027
KF00 101735Z AUTO 25011KT 10SM CLR 17/M05 A3034 RMK AO2 T01721046
KF00 101715Z AUTO 25008KT 10SM CLR 17/M04 A3035 RMK AO2 T01661039
KF00 101655Z AUTO 27010KT 10SM CLR 15/M04 A3036 RMK AO2 T01531042
KF00 101635Z AUTO 27010KT 10SM CLR 14/M04 A3036 RMK AO2 T01421038
KF00 101615Z AUTO 25006KT 10SM CLR 13/M03 A3036 RMK AO2 T01291027
KF00 101555Z AUTO 26007KT 210V270 10SM CLR 11/M02 A3037 RMK AO2 T01111023
KF00 101535Z AUTO 25007KT 10SM CLR 09/M02 A3037 RMK AO2 T00951015
KF00 101510Z AUTO 25005KT 10SM CLR 07/M01 A3038 RMK AO2 T00731008
KF00 101455Z AUTO 26004KT 10SM CLR 05/M01 A3038 RMK AO2 T00541006
KF00 101435Z AUTO 21003KT 10SM CLR 03/M01 A3037 RMK AO2 T00291014
KF00 101415Z AUTO 21003KT 10SM CLR 00/M03 A3038 RMK AO2 T00031028
KF00 101355Z AUTO 21005KT 10SM CLR M01/M05 A3038 RMK AO2 T10081046
KF00 101335Z AUTO 21004KT 10SM CLR M02/M05 A3037 RMK AO2 T10151049
KF00 101315Z AUTO 18004KT 10SM CLR M03/M05 A3036 RMK AO2 T10251053
KF00 101255Z AUTO 24003KT 10SM CLR 00/M04 A3036 RMK AO2 T10031041
KF00 101235Z AUTO 25004KT 10SM CLR M01/M05 A3036 RMK AO2 T10111048
KF00 101215Z AUTO 23003KT 10SM CLR M01/M05 A3035 RMK AO2 T10131045
KF00 101155Z AUTO 22004KT 10SM CLR M01/M04 A3035 RMK AO2 T10121043 10019 21024
KF00 101135Z AUTO 00000KT 10SM CLR M02/M05 A3034 RMK AO2 T10161046
KF00 101115Z AUTO 25003KT 10SM CLR M01/M04 A3034 RMK AO2 T10061041
KF00 101055Z AUTO 24004KT 10SM CLR M01/M04 A3034 RMK AO2 T10051040